White Hall, Pennsylvania
Current Conditions -  °F | °C
As of 9:40 AM on Tuesday 27 Jan 2015 (Local Time) from KDMW Reporting Station
Scattered Clouds Scattered Clouds  
Wind Chill: 17°   Ceiling: Unl
Heat Index: 27°   Visibility: 10mi
Dew Point: 23°   Wind: 9mph
Humidity: 86%   Direction: 320°NW
Pressure: 29.77"   Gusts: NA
Location:  39.7552°N, 77.119°W
Report Text: KDMW 271440Z AUTO 32008KT 10SM SCT110 M03/M05 A2977 RMK AO2
Loading
Personal Weather Stations






























Interactive Weather Map New forecast layout! Learn more

10-Day Weather Forecast

Advertisements
Track Severe Weather on mobile